KNYC

Central Park Airport

New York City, New York, USA
METAR KNYC 241251Z AUTO 00000KT 4SM BR OVC009 21/19 A2987 RMK AO2 SLP105 T02060189 $
Observed Flight Rules
Jun-24 @ 12:51 UTC (25 minutes ago) Instrument Flight Rules
Visibility Clouds Conditions
4 miles
  • Overcast at 900' AGL
  • Mist
Temperatures Readings
Current 21°C / 70°F
Dewpoint 19°C / 66°F
Humidity 88%
Altimeter 29.87" Hg
Pressure 1010.5 hPa
Elevation 11
METAR KNYC 241251Z AUTO 00000KT 4SM BR OVC009 21/19 A2987 RMK AO2 SLP105 T02060189 $
Observed Flight Rules
Jun-24 @ 12:51 UTC
(25 minutes ago)
IFR
Clouds
  • Overcast at 900' AGL
Conditions
  • Mist
Temperature Dewpoint
21°C / 70°F 19°C / 66°F
Humidity Altimeter Pressure
88% 29.87" Hg 1010.5 hPa